createdAt,value
2022-07-28T00:00:28.093Z,6.00
2022-07-28T00:03:07.470Z,5.10
2022-07-28T00:05:36.093Z,6.90
2022-07-28T00:08:05.572Z,8.50
2022-07-28T00:10:34.055Z,10.40
2022-07-28T00:13:02.528Z,7.30
2022-07-28T00:15:32.499Z,6.00
2022-07-28T00:18:01.320Z,6.00
2022-07-28T00:20:31.009Z,11.10
2022-07-28T00:22:59.486Z,9.90
2022-07-28T00:25:27.910Z,11.80
2022-07-28T00:27:56.410Z,12.40
2022-07-28T00:30:24.971Z,12.10
2022-07-28T00:32:53.646Z,9.40
2022-07-28T00:35:30.513Z,13.30
2022-07-28T00:38:01.195Z,11.00
2022-07-28T00:40:48.438Z,6.30
2022-07-28T00:43:16.881Z,7.20
2022-07-28T00:45:45.472Z,8.70
2022-07-28T00:48:13.928Z,8.60
2022-07-28T00:50:43.848Z,8.20
2022-07-28T00:53:12.548Z,7.20
2022-07-28T00:56:03.288Z,8.90
2022-07-28T00:58:31.038Z,8.40
2022-07-28T01:00:59.652Z,8.40
2022-07-28T01:03:29.617Z,5.60
2022-07-28T01:06:16.726Z,6.40
2022-07-28T01:09:22.056Z,9.10
2022-07-28T01:12:09.404Z,10.00
2022-07-28T01:14:49.846Z,10.90
2022-07-28T01:17:39.233Z,11.20
2022-07-28T01:20:34.667Z,11.30
2022-07-28T01:26:23.647Z,10.60
2022-07-28T01:29:01.169Z,8.10
2022-07-28T01:31:43.944Z,7.60
2022-07-28T01:34:23.873Z,8.40
2022-07-28T01:37:05.020Z,8.30
2022-07-28T01:39:36.556Z,7.60
2022-07-28T01:42:07.988Z,9.20
2022-07-28T01:44:41.416Z,11.40
2022-07-28T01:47:11.945Z,8.90
2022-07-28T01:49:44.249Z,8.50
2022-07-28T01:52:13.961Z,8.00
2022-07-28T01:54:46.183Z,7.50
2022-07-28T01:57:18.117Z,8.00
2022-07-28T01:59:48.610Z,8.20
2022-07-28T02:02:21.508Z,8.20
2022-07-28T02:04:51.538Z,12.80
2022-07-28T02:07:21.435Z,7.70
2022-07-28T02:09:50.456Z,7.50
2022-07-28T02:12:20.477Z,6.90
2022-07-28T02:14:50.793Z,7.80
2022-07-28T02:17:25.657Z,6.70
2022-07-28T02:19:55.410Z,8.80
2022-07-28T02:22:27.048Z,4.90
2022-07-28T02:24:56.206Z,5.20
2022-07-28T02:27:24.580Z,6.70
2022-07-28T02:30:11.394Z,7.10
2022-07-28T02:32:55.584Z,10.00
2022-07-28T02:35:46.062Z,6.40
2022-07-28T02:38:28.278Z,9.10
2022-07-28T02:41:02.827Z,9.70
2022-07-28T02:46:22.411Z,6.90
2022-07-28T02:48:55.119Z,4.00
2022-07-28T02:51:28.890Z,8.60
2022-07-28T02:53:58.713Z,7.80
2022-07-28T02:56:29.029Z,5.20
2022-07-28T02:58:58.852Z,8.50
2022-07-28T03:01:27.594Z,5.70
2022-07-28T03:03:58.034Z,8.90
2022-07-28T03:06:28.797Z,3.80
2022-07-28T03:08:58.133Z,6.10
2022-07-28T03:11:27.877Z,4.90
2022-07-28T03:13:56.306Z,5.90
2022-07-28T03:16:24.883Z,7.80
2022-07-28T03:18:53.325Z,6.80
2022-07-28T03:21:21.745Z,7.20
2022-07-28T03:23:51.825Z,6.60
2022-07-28T03:26:27.912Z,7.80
2022-07-28T03:28:58.122Z,8.50
2022-07-28T03:31:29.167Z,7.90
2022-07-28T03:33:57.883Z,5.30
2022-07-28T03:36:31.827Z,8.40
2022-07-28T03:39:06.262Z,5.70
2022-07-28T03:41:35.475Z,5.90
2022-07-28T03:44:04.661Z,6.70
2022-07-28T03:46:34.049Z,7.00
2022-07-28T03:49:02.546Z,8.40
2022-07-28T03:51:33.117Z,6.20
2022-07-28T03:54:01.673Z,7.60
2022-07-28T03:56:30.178Z,6.30
2022-07-28T03:58:58.637Z,7.00
2022-07-28T04:01:27.093Z,7.50
2022-07-28T04:03:55.473Z,7.30
2022-07-28T04:06:24.078Z,4.80
2022-07-28T04:08:52.441Z,6.10
2022-07-28T04:11:20.813Z,4.40
2022-07-28T04:13:49.546Z,6.60
2022-07-28T04:16:18.155Z,9.10
2022-07-28T04:18:47.650Z,8.30
2022-07-28T04:21:16.462Z,7.40
2022-07-28T04:23:44.872Z,4.30
2022-07-28T04:26:13.833Z,3.40
2022-07-28T04:28:42.272Z,7.40
2022-07-28T04:31:10.776Z,6.50
2022-07-28T04:33:39.785Z,7.90
2022-07-28T04:36:08.347Z,6.80
2022-07-28T04:38:37.865Z,5.80
2022-07-28T04:41:06.501Z,10.90
2022-07-28T04:43:34.911Z,6.20
2022-07-28T04:46:03.230Z,10.90
2022-07-28T04:48:31.475Z,8.10
2022-07-28T04:50:59.879Z,8.10
2022-07-28T04:53:29.526Z,4.00
2022-07-28T04:55:58.231Z,9.20
2022-07-28T04:58:27.825Z,7.60
2022-07-28T05:00:59.247Z,7.10
2022-07-28T05:03:30.409Z,5.80
2022-07-28T05:06:01.007Z,8.50
2022-07-28T05:08:29.378Z,7.80
2022-07-28T05:10:57.733Z,11.40
2022-07-28T05:13:30.392Z,7.50
2022-07-28T05:16:02.935Z,7.70
2022-07-28T05:18:31.200Z,8.00
2022-07-28T05:20:59.585Z,4.00
2022-07-28T05:23:28.073Z,9.30
2022-07-28T05:25:56.974Z,8.80
2022-07-28T05:28:25.689Z,7.10
2022-07-28T05:30:54.439Z,8.70
2022-07-28T05:33:22.700Z,6.60
2022-07-28T05:36:00.039Z,9.40
2022-07-28T05:38:29.188Z,7.00
2022-07-28T05:40:58.102Z,6.70
2022-07-28T05:43:26.506Z,7.90
2022-07-28T05:45:54.983Z,6.80
2022-07-28T05:48:23.482Z,6.90
2022-07-28T05:50:51.689Z,10.00
2022-07-28T05:53:21.316Z,9.70
2022-07-28T05:56:00.633Z,8.90
2022-07-28T05:58:31.387Z,6.30
2022-07-28T06:01:03.780Z,9.90
2022-07-28T06:03:38.441Z,7.20
2022-07-28T06:06:15.019Z,8.50
2022-07-28T06:08:46.765Z,6.40
2022-07-28T06:11:21.651Z,17.80
2022-07-28T06:13:52.572Z,6.80
2022-07-28T06:16:23.055Z,11.40
2022-07-28T06:18:52.622Z,10.20
2022-07-28T06:21:23.529Z,9.30
2022-07-28T06:23:51.979Z,9.60
2022-07-28T06:26:23.480Z,9.20
2022-07-28T06:28:52.283Z,13.20
2022-07-28T06:31:20.728Z,9.70
2022-07-28T06:33:49.015Z,7.30
2022-07-28T06:36:17.451Z,9.60
2022-07-28T06:38:45.718Z,9.80
2022-07-28T06:41:13.971Z,12.90
2022-07-28T06:43:42.288Z,10.10
2022-07-28T06:46:10.645Z,12.10
2022-07-28T06:48:39.634Z,10.70
2022-07-28T06:51:08.206Z,9.00
2022-07-28T06:53:36.453Z,8.40
2022-07-28T06:56:05.400Z,9.10
2022-07-28T06:58:34.513Z,10.10
2022-07-28T07:01:08.010Z,7.20
2022-07-28T07:03:36.550Z,9.40
2022-07-28T07:06:04.849Z,10.60
2022-07-28T07:08:34.023Z,11.70
2022-07-28T07:11:02.444Z,4.10
2022-07-28T07:13:30.771Z,9.60
2022-07-28T07:15:59.170Z,8.20
2022-07-28T07:18:27.787Z,13.50
2022-07-28T07:20:57.922Z,13.10
2022-07-28T07:23:26.124Z,8.70
2022-07-28T07:25:54.582Z,11.20
2022-07-28T07:28:22.864Z,7.20
2022-07-28T07:30:51.160Z,10.40
2022-07-28T07:33:19.763Z,9.80
2022-07-28T07:35:48.834Z,8.20
2022-07-28T07:38:17.246Z,5.60
2022-07-28T07:40:45.646Z,7.30
2022-07-28T07:43:14.046Z,7.80
2022-07-28T07:45:42.337Z,8.30
2022-07-28T07:48:10.709Z,4.80
2022-07-28T07:50:39.069Z,5.80
2022-07-28T07:53:07.313Z,8.10
2022-07-28T07:55:37.734Z,7.00
2022-07-28T07:58:07.169Z,8.80
2022-07-28T08:00:35.985Z,7.30
2022-07-28T08:03:04.788Z,8.00
2022-07-28T08:05:39.879Z,6.80
2022-07-28T08:08:08.883Z,8.80
2022-07-28T08:10:39.534Z,12.70
2022-07-28T08:13:08.406Z,7.10
2022-07-28T08:15:36.860Z,12.00
2022-07-28T08:18:05.243Z,8.80
2022-07-28T08:20:33.491Z,11.60
2022-07-28T08:23:01.830Z,7.00
2022-07-28T08:25:30.030Z,6.80
2022-07-28T08:27:58.286Z,8.50
2022-07-28T08:30:31.994Z,7.40
2022-07-28T08:33:03.143Z,5.10
2022-07-28T08:35:34.626Z,8.90
2022-07-28T08:38:07.185Z,6.50
2022-07-28T08:40:38.836Z,8.90
2022-07-28T08:43:23.710Z,7.80
2022-07-28T08:45:58.067Z,10.00
2022-07-28T08:48:31.627Z,8.50
2022-07-28T08:51:09.710Z,9.20
2022-07-28T08:53:40.301Z,6.70
2022-07-28T08:56:12.414Z,9.20
2022-07-28T08:58:41.072Z,6.50
2022-07-28T09:01:11.061Z,6.00
2022-07-28T09:03:39.835Z,8.70
2022-07-28T09:06:08.460Z,10.60
2022-07-28T09:08:37.404Z,7.50
2022-07-28T09:11:08.360Z,7.80
2022-07-28T09:13:36.829Z,8.80
2022-07-28T09:16:07.009Z,10.90
2022-07-28T09:18:35.505Z,10.00
2022-07-28T09:21:03.889Z,9.30
2022-07-28T09:23:46.633Z,5.70
2022-07-28T09:26:15.632Z,7.90
2022-07-28T09:28:55.273Z,8.00
2022-07-28T09:31:26.109Z,6.50
2022-07-28T09:33:56.140Z,6.40
2022-07-28T09:36:24.659Z,7.60
2022-07-28T09:38:54.323Z,5.00
2022-07-28T09:41:24.075Z,6.30
2022-07-28T09:43:55.372Z,10.50
2022-07-28T09:46:26.138Z,10.20
2022-07-28T09:49:01.324Z,8.90
2022-07-28T09:51:31.943Z,7.60
2022-07-28T09:54:12.710Z,6.70
2022-07-28T09:56:44.289Z,4.80
2022-07-28T09:59:14.898Z,5.60
2022-07-28T10:01:52.685Z,7.40
2022-07-28T10:04:31.757Z,10.10
2022-07-28T10:07:14.160Z,6.20
2022-07-28T10:09:43.457Z,8.70
2022-07-28T10:12:20.956Z,7.90
2022-07-28T10:14:52.063Z,10.60
2022-07-28T10:17:34.361Z,8.00
2022-07-28T10:20:06.176Z,8.70
2022-07-28T10:22:42.782Z,9.90
2022-07-28T10:25:14.395Z,5.40
2022-07-28T10:27:47.632Z,7.20
2022-07-28T10:30:16.245Z,7.90
2022-07-28T10:32:46.272Z,9.30
2022-07-28T10:35:17.606Z,7.80
2022-07-28T10:37:54.150Z,5.90
2022-07-28T10:40:26.849Z,6.40
2022-07-28T10:42:56.740Z,4.60
2022-07-28T10:45:42.032Z,7.70
2022-07-28T10:48:15.569Z,4.70
2022-07-28T10:50:45.028Z,8.10
2022-07-28T10:53:26.415Z,6.80
2022-07-28T10:56:07.729Z,8.40
2022-07-28T10:59:10.522Z,5.00
2022-07-28T11:01:50.511Z,3.70
2022-07-28T11:04:41.060Z,6.60
2022-07-28T11:07:15.259Z,6.20
2022-07-28T11:09:44.868Z,2.70
2022-07-28T11:12:16.041Z,4.60
2022-07-28T11:14:45.103Z,7.60
2022-07-28T11:17:15.000Z,4.90
2022-07-28T11:22:35.003Z,7.60
2022-07-28T11:25:18.444Z,6.30
2022-07-28T11:27:50.916Z,3.90
2022-07-28T11:30:21.441Z,6.20
2022-07-28T11:32:55.839Z,7.00
2022-07-28T11:35:25.577Z,5.00
2022-07-28T11:38:03.320Z,6.20
2022-07-28T11:40:42.591Z,3.60
2022-07-28T11:43:36.898Z,4.60
2022-07-28T11:46:11.191Z,5.70
2022-07-28T11:48:43.736Z,6.90
2022-07-28T11:51:13.360Z,4.40
2022-07-28T11:53:53.753Z,4.90
2022-07-28T11:56:27.937Z,7.20
2022-07-28T11:59:01.328Z,4.00
2022-07-28T12:01:31.985Z,7.20
2022-07-28T12:04:01.578Z,7.50
2022-07-28T12:06:37.522Z,3.40
2022-07-28T12:09:08.423Z,6.10
2022-07-28T12:11:38.915Z,6.50
2022-07-28T12:14:09.693Z,4.30
2022-07-28T12:16:41.253Z,6.40
2022-07-28T12:19:11.283Z,9.20
2022-07-28T12:21:47.697Z,5.20
2022-07-28T12:24:20.113Z,9.90
2022-07-28T12:26:50.574Z,4.30
2022-07-28T12:29:20.776Z,5.00
2022-07-28T12:32:01.075Z,6.20
2022-07-28T12:34:31.094Z,4.90
2022-07-28T12:37:04.569Z,4.40
2022-07-28T12:39:42.851Z,5.00
2022-07-28T12:42:13.397Z,6.30
2022-07-28T12:44:43.958Z,6.10
2022-07-28T12:47:13.767Z,6.80
2022-07-28T12:49:44.345Z,6.10
2022-07-28T12:52:24.813Z,6.30
2022-07-28T12:54:55.774Z,6.60
2022-07-28T12:57:48.146Z,5.70
2022-07-28T13:00:22.882Z,6.90
2022-07-28T13:02:56.187Z,5.90
2022-07-28T13:05:33.211Z,7.60
2022-07-28T13:08:03.623Z,4.40
2022-07-28T13:10:33.516Z,5.10
2022-07-28T13:13:07.775Z,8.70
2022-07-28T13:15:36.275Z,3.20
2022-07-28T13:18:05.163Z,4.10
2022-07-28T13:20:50.718Z,4.70
2022-07-28T13:23:19.054Z,5.50
2022-07-28T13:25:47.891Z,8.10
2022-07-28T13:28:28.573Z,6.20
2022-07-28T13:30:56.936Z,5.60
2022-07-28T13:33:26.948Z,6.40
2022-07-28T13:35:56.698Z,4.00
2022-07-28T13:38:25.148Z,7.10
2022-07-28T13:40:53.463Z,4.50
2022-07-28T13:43:21.843Z,4.70
2022-07-28T13:45:50.180Z,4.90
2022-07-28T13:48:18.520Z,4.00
2022-07-28T13:50:48.163Z,7.50
2022-07-28T13:53:17.867Z,3.40
2022-07-28T13:55:46.416Z,7.10
2022-07-28T13:58:15.341Z,3.60
2022-07-28T14:00:43.889Z,11.60
2022-07-28T14:03:12.964Z,4.30
2022-07-28T14:05:42.276Z,5.50
2022-07-28T14:08:12.539Z,6.20
2022-07-28T14:10:40.914Z,4.70
2022-07-28T14:13:16.582Z,5.10
2022-07-28T14:15:47.124Z,8.00
2022-07-28T14:18:15.377Z,6.30
2022-07-28T14:20:43.703Z,6.80
2022-07-28T14:23:11.926Z,6.00
2022-07-28T14:25:49.213Z,2.80
2022-07-28T14:28:18.716Z,4.80
2022-07-28T14:30:46.957Z,6.60
2022-07-28T14:33:15.307Z,6.10
2022-07-28T14:35:43.633Z,4.90
2022-07-28T14:38:51.178Z,3.50
2022-07-28T14:41:01.905Z,2.90
2022-07-28T14:43:30.257Z,6.30
2022-07-28T14:46:13.611Z,3.20
2022-07-28T14:48:46.386Z,6.30
2022-07-28T14:51:15.947Z,6.70
2022-07-28T14:53:46.416Z,5.70
2022-07-28T14:56:20.112Z,8.10
2022-07-28T14:58:48.376Z,7.40
2022-07-28T15:01:16.732Z,7.30
2022-07-28T15:03:45.603Z,6.20
2022-07-28T15:06:13.845Z,6.40
2022-07-28T15:08:42.049Z,5.00
2022-07-28T15:11:10.423Z,5.60
2022-07-28T15:13:38.714Z,4.00
2022-07-28T15:16:07.309Z,7.90
2022-07-28T15:18:36.035Z,4.40
2022-07-28T15:21:06.694Z,6.10
2022-07-28T15:23:34.893Z,6.40
2022-07-28T15:26:03.185Z,6.10
2022-07-28T15:28:31.553Z,2.60
2022-07-28T15:30:59.953Z,8.10
2022-07-28T15:33:28.274Z,5.10
2022-07-28T15:36:00.596Z,9.40
2022-07-28T15:38:31.501Z,7.30
2022-07-28T15:41:00.145Z,6.40
2022-07-28T15:43:30.734Z,5.60
2022-07-28T15:46:06.176Z,7.20
2022-07-28T15:48:34.961Z,3.50
2022-07-28T15:51:03.327Z,4.40
2022-07-28T15:53:31.715Z,4.40
2022-07-28T15:56:00.019Z,6.70
2022-07-28T15:58:28.391Z,6.30
2022-07-28T16:00:56.709Z,6.30
2022-07-28T16:03:30.679Z,7.70
2022-07-28T16:05:59.300Z,8.30
2022-07-28T16:08:27.682Z,8.00
2022-07-28T16:10:56.018Z,5.20
2022-07-28T16:13:33.391Z,6.20
2022-07-28T16:16:10.779Z,4.20
2022-07-28T16:18:42.875Z,3.60
2022-07-28T16:21:11.596Z,5.60
2022-07-28T16:23:39.937Z,9.40
2022-07-28T16:26:09.529Z,6.90
2022-07-28T16:28:38.099Z,7.10
2022-07-28T16:31:06.542Z,5.90
2022-07-28T16:33:34.854Z,4.80
2022-07-28T16:36:03.524Z,5.90
2022-07-28T16:38:31.800Z,7.60
2022-07-28T16:41:00.086Z,7.20
2022-07-28T16:43:28.581Z,8.50
2022-07-28T16:45:56.912Z,5.50
2022-07-28T16:48:25.177Z,6.30
2022-07-28T16:50:56.826Z,5.70
2022-07-28T16:53:25.206Z,5.80
2022-07-28T16:55:53.606Z,3.60
2022-07-28T16:58:22.717Z,5.00
2022-07-28T17:00:51.014Z,6.10
2022-07-28T17:03:19.345Z,9.40
2022-07-28T17:05:48.653Z,5.50
2022-07-28T17:08:16.962Z,5.00
2022-07-28T17:10:46.757Z,7.60
2022-07-28T17:13:16.442Z,10.90
2022-07-28T17:15:44.717Z,4.30
2022-07-28T17:18:13.076Z,7.00
2022-07-28T17:20:42.100Z,6.80
2022-07-28T17:23:10.515Z,5.00
2022-07-28T17:26:09.015Z,3.80
2022-07-28T17:28:27.563Z,3.80
2022-07-28T17:30:56.105Z,6.80
2022-07-28T17:33:26.918Z,6.80
2022-07-28T17:35:56.301Z,4.50
2022-07-28T17:38:30.986Z,5.90
2022-07-28T17:41:04.479Z,6.70
2022-07-28T17:43:33.070Z,5.50
2022-07-28T17:46:03.011Z,6.20
2022-07-28T17:48:38.527Z,6.20
2022-07-28T17:51:07.022Z,4.40
2022-07-28T17:53:39.044Z,4.30
2022-07-28T17:56:08.998Z,6.60
2022-07-28T17:58:38.311Z,13.70
2022-07-28T18:01:12.380Z,8.80
2022-07-28T18:03:58.060Z,7.30
2022-07-28T18:06:32.700Z,9.10
2022-07-28T18:09:08.311Z,6.90
2022-07-28T18:11:57.406Z,5.30
2022-07-28T18:14:28.384Z,7.50
2022-07-28T18:16:57.980Z,5.50
2022-07-28T18:19:27.211Z,8.80
2022-07-28T18:21:56.745Z,10.00
2022-07-28T18:24:26.598Z,3.50
2022-07-28T18:26:54.999Z,6.30
2022-07-28T18:29:24.845Z,4.40
2022-07-28T18:31:53.646Z,13.70
2022-07-28T18:34:24.744Z,11.10
2022-07-28T18:36:54.509Z,9.40
2022-07-28T18:39:22.983Z,7.50
2022-07-28T18:41:55.499Z,11.50
2022-07-28T18:44:23.769Z,7.70
2022-07-28T18:46:52.192Z,9.40
2022-07-28T18:49:21.763Z,34.70
2022-07-28T18:51:50.103Z,25.30
2022-07-28T18:54:27.148Z,11.30
2022-07-28T18:56:56.458Z,11.80
2022-07-28T18:59:25.121Z,14.10
2022-07-28T19:01:53.556Z,11.10
2022-07-28T19:04:22.895Z,6.70
2022-07-28T19:06:51.535Z,8.00
2022-07-28T19:09:20.165Z,10.10
2022-07-28T19:11:48.505Z,8.80
2022-07-28T19:14:17.558Z,10.50
2022-07-28T19:16:46.357Z,6.30
2022-07-28T19:19:14.839Z,12.80
2022-07-28T19:21:43.870Z,10.50
2022-07-28T19:24:14.186Z,7.60
2022-07-28T19:26:45.363Z,7.40
2022-07-28T19:29:14.090Z,7.00
2022-07-28T19:31:42.981Z,11.00
2022-07-28T19:34:11.511Z,7.90
2022-07-28T19:36:41.851Z,8.90
2022-07-28T19:39:12.315Z,13.40
2022-07-28T19:41:40.933Z,10.60
2022-07-28T19:44:09.616Z,10.90
2022-07-28T19:46:39.274Z,10.00
2022-07-28T19:49:09.369Z,13.90
2022-07-28T19:51:38.383Z,14.90
2022-07-28T19:54:06.737Z,11.00
2022-07-28T19:56:35.144Z,8.30
2022-07-28T19:59:03.397Z,14.30
2022-07-28T20:01:31.841Z,9.80
2022-07-28T20:04:05.001Z,10.50
2022-07-28T20:06:34.517Z,9.80
2022-07-28T20:09:04.449Z,11.20
2022-07-28T20:11:33.203Z,12.00
2022-07-28T20:14:01.706Z,15.40
2022-07-28T20:16:30.608Z,11.70
2022-07-28T20:18:59.547Z,12.40
2022-07-28T20:21:27.890Z,10.10
2022-07-28T20:23:57.311Z,12.00
2022-07-28T20:26:26.966Z,13.10
2022-07-28T20:28:58.481Z,13.80
2022-07-28T20:31:27.090Z,27.20
2022-07-28T20:33:56.671Z,11.20
2022-07-28T20:36:29.503Z,11.70
2022-07-28T20:38:58.271Z,9.70
2022-07-28T20:41:26.510Z,9.40
2022-07-28T20:44:26.052Z,12.20
2022-07-28T20:46:43.040Z,14.30
2022-07-28T20:49:11.295Z,11.10
2022-07-28T20:51:39.781Z,10.20
2022-07-28T20:54:19.515Z,12.70
2022-07-28T20:56:47.931Z,12.30
2022-07-28T20:59:16.444Z,12.00
2022-07-28T21:01:44.806Z,13.40
2022-07-28T21:04:13.683Z,11.60
2022-07-28T21:06:51.161Z,15.40
2022-07-28T21:09:21.221Z,12.40
2022-07-28T21:11:49.583Z,9.80
2022-07-28T21:14:19.028Z,10.80
2022-07-28T21:16:47.775Z,13.50
2022-07-28T21:19:16.056Z,12.60
2022-07-28T21:21:44.283Z,12.90
2022-07-28T21:24:12.631Z,9.40
2022-07-28T21:26:42.934Z,13.20
2022-07-28T21:29:12.476Z,12.90
2022-07-28T21:32:02.326Z,15.00
2022-07-28T21:34:33.965Z,13.30
2022-07-28T21:37:07.079Z,10.60
2022-07-28T21:39:36.740Z,12.00
2022-07-28T21:42:08.094Z,12.80
2022-07-28T21:44:37.628Z,12.30
2022-07-28T21:47:06.097Z,13.30
2022-07-28T21:49:34.378Z,11.90
2022-07-28T21:52:02.597Z,14.20
2022-07-28T21:54:30.999Z,16.10
2022-07-28T21:56:59.274Z,11.40
2022-07-28T21:59:27.471Z,15.50
2022-07-28T22:01:55.773Z,16.10
2022-07-28T22:04:24.059Z,10.70
2022-07-28T22:06:54.201Z,13.80
2022-07-28T22:09:22.637Z,18.70
2022-07-28T22:11:50.925Z,11.50
2022-07-28T22:14:19.454Z,9.90
2022-07-28T22:16:48.051Z,14.60
2022-07-28T22:19:16.250Z,16.30
2022-07-28T22:21:44.443Z,11.50
2022-07-28T22:24:13.045Z,11.80
2022-07-28T22:26:41.494Z,13.80
2022-07-28T22:29:09.673Z,11.80
2022-07-28T22:31:38.000Z,16.10
2022-07-28T22:34:06.235Z,17.70
2022-07-28T22:36:34.482Z,16.20
2022-07-28T22:39:02.748Z,14.30
2022-07-28T22:41:30.974Z,10.30
2022-07-28T22:43:59.257Z,14.70
2022-07-28T22:46:27.609Z,13.20
2022-07-28T22:48:55.897Z,13.20
2022-07-28T22:51:24.158Z,13.10
2022-07-28T22:53:52.400Z,13.20
2022-07-28T22:56:20.642Z,11.60
2022-07-28T22:58:49.924Z,10.70
2022-07-28T23:01:18.189Z,9.40
2022-07-28T23:03:47.393Z,10.80
2022-07-28T23:06:15.973Z,10.50
2022-07-28T23:08:44.211Z,12.90
2022-07-28T23:11:12.378Z,11.70
2022-07-28T23:13:41.099Z,12.50
2022-07-28T23:16:11.004Z,13.30
2022-07-28T23:18:40.514Z,12.80
2022-07-28T23:21:09.197Z,11.30
2022-07-28T23:23:38.105Z,12.10
2022-07-28T23:26:06.314Z,11.60
2022-07-28T23:28:36.518Z,16.10
2022-07-28T23:31:05.547Z,13.60
2022-07-28T23:33:55.061Z,13.70
2022-07-28T23:36:27.455Z,13.60
2022-07-28T23:38:57.729Z,11.80
2022-07-28T23:41:27.137Z,11.50
2022-07-28T23:43:55.588Z,12.40
2022-07-28T23:46:24.617Z,12.20
2022-07-28T23:48:53.120Z,11.90
2022-07-28T23:51:22.615Z,11.40
2022-07-28T23:54:09.431Z,12.90
2022-07-28T23:56:38.407Z,15.90
2022-07-28T23:59:09.246Z,11.80
